Flight Track Log - Related Links

Times and Time Zones

All times are in EDT time to prevent confusion due to time zone crossing. See the ASQ4605 flight status page for this flight to view local times or setup timezone preferences in your user account.

Time Position Orientation Groundspeed Altitude Reporting Facility
EDT Latitude Longitude Course Direction KTS MPH feet Rate Location/Type
Thu 03:22:42 PM 43.6333 -79.6333 194° South 170 196 2,700  Level Toronto Center
Thu 03:23:42 PM 43.5833 -79.7000 224° Southwest 220 253 4,900 2,150 Climbing Toronto Center
Thu 03:24:42 PM 43.5167 -79.7167 190° South 250 288 7,000 2,200 Climbing Toronto Center
Thu 03:25:42 PM 43.4500 -79.7167 180° South 280 322 9,300 2,350 Climbing Toronto Center
Thu 03:26:42 PM 43.3667 -79.7500 196° South 290 334 11,700 2,250 Climbing Toronto Center
Thu 03:27:42 PM 43.2833 -79.7667 188° South 300 345 13,800 1,800 Climbing Toronto Center
Thu 03:28:00 PM 43.0680 -79.7329 194° South  Level FlightAware Approximate
Thu 03:28:42 PM 43.2000 -79.8167 204° Southwest 310 357 15,300  Level Toronto Center
Thu 03:29:42 PM 43.1167 -79.8333 188° South 340 391 16,400 1,050 Climbing Toronto Center
Thu 03:30:42 PM 43.0167 -79.8833 200° South 370 426 17,400 1,050 Climbing Toronto Center
Thu 03:31:42 PM 42.9000 -79.9333 197° South 390 449 18,500 1,018 Climbing Toronto Center
Thu 03:32:34 PM 42.8233 -79.9831 205° Southwest 402 463 19,300 964 Climbing Cleveland Center
Thu 03:33:34 PM 42.7194 -80.0519 206° Southwest 422 486 20,300 1,050 Climbing Cleveland Center
Thu 03:34:34 PM 42.6261 -80.1403 215° Southwest 412 474 21,400 850 Climbing Cleveland Center
Thu 03:35:34 PM 42.5306 -80.2339 216° Southwest 419 482 22,000 250 Climbing Cleveland Center
Thu 03:36:34 PM 42.4267 -80.3244 213° Southwest 435 501 21,900 -550 Descending Cleveland Center
Thu 03:37:34 PM 42.3308 -80.4175 216° Southwest 440 506 20,900 -1,150 Descending Cleveland Center
Thu 03:38:34 PM 42.2331 -80.5075 214° Southwest 435 501 19,600 -1,400 Descending Cleveland Center
Thu 03:39:34 PM 42.1350 -80.5972 214° Southwest 441 507 18,100 -1,300 Descending Cleveland Center
Thu 03:40:34 PM 42.0494 -80.6697 212° Southwest 425 489 17,000 -1,000 Descending Cleveland Center
Thu 03:41:34 PM 41.9411 -80.7031 193° South 407 468 16,100 -900 Descending Cleveland Center
Thu 03:42:34 PM 41.8369 -80.7419 196° South 394 453 15,200 -950 Descending Cleveland Center
Thu 03:43:34 PM 41.7431 -80.7725 194° South 370 426 14,200 -1,000 Descending Cleveland Center
Thu 03:44:34 PM 41.6719 -80.8556 221° Southwest 340 391 13,200 -1,050 Descending Cleveland Center
Thu 03:45:34 PM 41.6133 -80.9664 235° Southwest 335 386 12,100 -1,440 Descending Cleveland Center
Thu 03:46:14 PM 41.5775 -81.0411 237° Southwest 331 381 10,800 -1,600 Descending Cleveland Center
Thu 03:46:34 PM 41.5608 -81.0717 234° Southwest 335 386 10,500 -600 Descending Cleveland Center
Thu 03:47:34 PM 41.5144 -81.1739 239° Southwest 335 386 10,000 -250 Descending Cleveland Center
Thu 03:48:34 PM 41.4992 -81.2872 260° West 318 366 10,000  Level Cleveland Center
Thu 03:49:34 PM 41.4839 -81.4008 260° West 308 354 10,000 -50 Level Cleveland Center
Thu 03:50:34 PM 41.4558 -81.5114 251° West 310 357 9,900 -609 Descending Cleveland Center
Thu 03:51:42 PM 41.4258 -81.6161 249° West 266 306 8,700 -1,000 Descending Cleveland Center
Thu 03:52:34 PM 41.4042 -81.6906 249° West 273 314 7,900 -964 Descending Cleveland Center
Thu 03:53:34 PM 41.3578 -81.7644 230° Southwest 265 305 6,900 -1,150 Descending Cleveland Center
Thu 03:54:34 PM 41.3111 -81.8381 230° Southwest 270 311 5,600 -1,150 Descending Cleveland Center
Thu 03:55:34 PM 41.2664 -81.9147 232° Southwest 270 311 4,600 -1,091 Descending Cleveland Center
Thu 03:56:46 PM 41.3181 -81.9600 327° Northwest 221 254 3,200 -1,218 Descending Cleveland Center
Thu 03:57:47 PM 41.3642 -81.9278 28° Northeast 166 191 1,900 -1,033 Descending Cleveland Center
Thu 03:58:48 PM 41.3917 -81.8894 46° Northeast 135 155 1,100 -787 Descending Cleveland Center

Login

Don't have an account? Register now (free) for customized features, flight alerts, and more!